Time;durP1;ratioP1;P1;durP2;ratioP2;P2;SDS_P1;SDS_P2;PMS_P1;PMS_P2;Temp;Humidity;BMP_temperature;BMP_pressure;BME280_temperature;BME280_humidity;BME280_pressure;Samples;Min_cycle;Max_cycle;Signal;HPM_P1;HPM_P2
2021/08/04 00:01:10;;;;;;;4.57;2.47;;;;;;;;;;4994590;28;20183;-74
2021/08/04 00:04:14;;;;;;;4.83;2.23;;;;;;;;;;4975189;28;20230;-74
2021/08/04 00:07:18;;;;;;;4.87;2.10;;;;;;;;;;4983788;28;20189;-74
2021/08/04 00:10:22;;;;;;;3.00;1.93;;;;;;;;;;4983771;28;20206;-73
2021/08/04 00:13:26;;;;;;;5.83;2.73;;;;;;;;;;4995656;28;20546;-73
2021/08/04 00:16:31;;;;;;;4.20;2.47;;;;;;;;;;4994239;28;20213;-74
2021/08/04 00:19:35;;;;;;;5.20;2.20;;;;;;;;;;4983320;28;20531;-74
2021/08/04 00:22:40;;;;;;;5.17;3.17;;;;;;;;;;4994342;28;20230;-73
2021/08/04 00:25:44;;;;;;;5.40;2.30;;;;;;;;;;4986889;28;20202;-73
2021/08/04 00:28:48;;;;;;;5.37;2.77;;;;;;;;;;5005587;28;20205;-74
2021/08/04 00:31:53;;;;;;;4.03;2.77;;;;;;;;;;4984010;28;20186;-74
2021/08/04 00:34:57;;;;;;;3.93;2.50;;;;;;;;;;4994567;28;20198;-73
2021/08/04 00:38:09;;;;;;;5.83;2.37;;;;;;;;;;4994565;28;20190;-73
2021/08/04 00:41:13;;;;;;;5.47;2.47;;;;;;;;;;4994528;28;20657;-74
2021/08/04 00:44:17;;;;;;;4.57;2.33;;;;;;;;;;4946964;28;1053165;-74
2021/08/04 00:47:22;;;;;;;3.93;2.73;;;;;;;;;;4964803;28;20185;-74
2021/08/04 00:50:27;;;;;;;8.87;2.47;;;;;;;;;;4984713;28;20194;-73
2021/08/04 00:53:32;;;;;;;9.07;2.93;;;;;;;;;;4995479;28;20700;-73
2021/08/04 00:56:49;;;;;;;8.73;2.60;;;;;;;;;;4994708;28;20550;-74
2021/08/04 00:59:54;;;;;;;2.90;2.40;;;;;;;;;;4972196;28;20194;-73
2021/08/04 01:03:04;;;;;;;5.53;2.80;;;;;;;;;;4994761;28;20229;-74
2021/08/04 01:06:14;;;;;;;3.97;2.63;;;;;;;;;;4995643;28;20202;-74
2021/08/04 01:09:20;;;;;;;3.60;2.60;;;;;;;;;;4983465;28;20186;-73
2021/08/04 01:12:33;;;;;;;5.73;2.67;;;;;;;;;;4986591;28;20551;-73
2021/08/04 01:15:45;;;;;;;4.70;2.50;;;;;;;;;;4985768;28;20198;-73
2021/08/04 01:19:14;;;;;;;3.83;2.57;;;;;;;;;;4986392;28;20186;-73
2021/08/04 01:22:49;;;;;;;5.97;2.60;;;;;;;;;;4994982;28;20233;-74
2021/08/04 01:26:07;;;;;;;5.03;3.20;;;;;;;;;;4987425;28;20186;-73
2021/08/04 01:29:14;;;;;;;6.47;2.80;;;;;;;;;;4967013;28;20199;-73
2021/08/04 01:32:20;;;;;;;6.47;3.20;;;;;;;;;;4975710;28;20223;-74
2021/08/04 01:35:24;;;;;;;5.40;3.50;;;;;;;;;;4983021;28;20194;-73
2021/08/04 01:38:31;;;;;;;4.23;2.63;;;;;;;;;;4992479;28;20201;-73
2021/08/04 01:41:37;;;;;;;3.53;2.90;;;;;;;;;;4983284;28;20190;-74
2021/08/04 01:44:43;;;;;;;5.07;2.97;;;;;;;;;;4975563;28;20203;-73
2021/08/04 01:47:48;;;;;;;8.77;3.33;;;;;;;;;;4975095;28;20182;-74
2021/08/04 01:50:56;;;;;;;3.87;2.90;;;;;;;;;;4975864;28;20178;-74
2021/08/04 01:54:00;;;;;;;4.20;2.80;;;;;;;;;;4975497;28;20230;-74
2021/08/04 01:57:08;;;;;;;3.80;3.00;;;;;;;;;;4975955;28;20618;-74
2021/08/04 02:00:12;;;;;;;5.63;2.47;;;;;;;;;;4966586;28;20193;-73
2021/08/04 02:03:22;;;;;;;5.17;2.63;;;;;;;;;;4988469;28;20574;-73
2021/08/04 02:06:44;;;;;;;5.33;2.70;;;;;;;;;;4974792;28;20198;-74
2021/08/04 02:09:53;;;;;;;3.63;2.80;;;;;;;;;;4964821;28;20197;-73
2021/08/04 02:13:14;;;;;;;5.00;2.60;;;;;;;;;;4993626;28;20554;-74
2021/08/04 02:16:24;;;;;;;4.37;2.83;;;;;;;;;;4994104;28;20198;-74
2021/08/04 02:19:36;;;;;;;4.03;2.70;;;;;;;;;;4982478;28;20220;-74
2021/08/04 02:22:53;;;;;;;5.80;2.90;;;;;;;;;;4994553;28;20558;-73
2021/08/04 02:26:02;;;;;;;3.50;2.40;;;;;;;;;;4987345;28;20182;-74
2021/08/04 02:29:07;;;;;;;5.50;2.73;;;;;;;;;;4998058;28;20641;-74
2021/08/04 02:32:12;;;;;;;6.20;3.10;;;;;;;;;;4988481;28;20222;-74
2021/08/04 02:35:17;;;;;;;3.63;2.70;;;;;;;;;;4998123;28;20182;-74
2021/08/04 02:38:22;;;;;;;6.63;2.90;;;;;;;;;;4986925;28;20182;-74
2021/08/04 02:41:26;;;;;;;5.83;3.17;;;;;;;;;;4990190;28;20198;-74
2021/08/04 02:44:30;;;;;;;8.20;3.03;;;;;;;;;;4997331;28;20202;-74
2021/08/04 02:47:35;;;;;;;3.60;3.20;;;;;;;;;;4997920;28;20186;-74
2021/08/04 02:50:46;;;;;;;3.27;2.60;;;;;;;;;;4997326;28;20182;-74
2021/08/04 02:53:54;;;;;;;4.77;2.80;;;;;;;;;;4996711;28;20218;-74
2021/08/04 02:56:58;;;;;;;2.97;2.53;;;;;;;;;;4997509;28;20198;-74
2021/08/04 03:00:04;;;;;;;7.27;3.20;;;;;;;;;;4997082;28;20550;-74
2021/08/04 03:03:10;;;;;;;6.10;3.10;;;;;;;;;;4997617;28;20226;-74
2021/08/04 03:06:14;;;;;;;3.93;2.73;;;;;;;;;;4985543;28;20182;-74
2021/08/04 03:09:18;;;;;;;6.70;2.63;;;;;;;;;;4994118;28;20194;-74
2021/08/04 03:12:22;;;;;;;3.13;2.83;;;;;;;;;;4996593;28;20221;-74
2021/08/04 03:15:27;;;;;;;5.67;3.07;;;;;;;;;;4997345;28;20178;-74
2021/08/04 03:18:31;;;;;;;7.13;3.33;;;;;;;;;;4995995;28;20190;-74
2021/08/04 03:21:35;;;;;;;10.33;3.37;;;;;;;;;;4984713;28;20206;-74
2021/08/04 03:24:40;;;;;;;3.43;3.10;;;;;;;;;;4977431;28;20195;-74
2021/08/04 03:27:45;;;;;;;4.37;2.80;;;;;;;;;;4977355;28;20225;-74
2021/08/04 03:30:49;;;;;;;4.50;2.67;;;;;;;;;;4976581;28;20183;-74
2021/08/04 03:33:53;;;;;;;9.70;3.10;;;;;;;;;;4995759;28;20218;-74
2021/08/04 03:36:57;;;;;;;3.70;2.80;;;;;;;;;;4996917;28;20206;-74
2021/08/04 03:40:02;;;;;;;3.23;2.73;;;;;;;;;;4995706;28;20206;-74
2021/08/04 03:43:06;;;;;;;4.83;2.97;;;;;;;;;;4984585;28;20697;-74
2021/08/04 03:46:10;;;;;;;4.90;3.47;;;;;;;;;;4996573;28;20182;-74
2021/08/04 03:49:15;;;;;;;3.30;2.63;;;;;;;;;;4995162;28;20190;-74
2021/08/04 03:52:19;;;;;;;3.23;2.93;;;;;;;;;;4996297;28;20221;-74
2021/08/04 03:55:23;;;;;;;4.50;2.60;;;;;;;;;;4996171;28;20186;-74
2021/08/04 03:58:28;;;;;;;4.77;2.97;;;;;;;;;;4996139;28;20190;-74
2021/08/04 04:01:36;;;;;;;4.03;3.20;;;;;;;;;;4984876;28;20190;-74
2021/08/04 04:04:41;;;;;;;5.53;2.90;;;;;;;;;;4996446;28;20661;-74
2021/08/04 04:07:45;;;;;;;3.67;3.20;;;;;;;;;;4996311;28;20526;-74
2021/08/04 04:10:49;;;;;;;5.33;3.10;;;;;;;;;;4995037;28;20182;-74
2021/08/04 04:13:53;;;;;;;3.83;2.80;;;;;;;;;;4996243;28;20713;-74
2021/08/04 04:16:57;;;;;;;4.13;2.83;;;;;;;;;;4996271;28;20178;-74
2021/08/04 04:20:03;;;;;;;4.13;2.73;;;;;;;;;;4995871;28;20194;-74
2021/08/04 04:23:07;;;;;;;4.80;2.77;;;;;;;;;;4995595;28;20221;-74
2021/08/04 04:26:11;;;;;;;7.40;3.00;;;;;;;;;;4995008;28;20531;-75
2021/08/04 04:29:15;;;;;;;3.70;2.60;;;;;;;;;;4995943;28;20190;-74
2021/08/04 04:32:19;;;;;;;3.73;2.90;;;;;;;;;;4995800;28;20244;-74
2021/08/04 04:35:23;;;;;;;5.27;3.40;;;;;;;;;;4995228;28;20190;-74
2021/08/04 04:38:27;;;;;;;3.60;3.07;;;;;;;;;;4995239;28;20209;-74
2021/08/04 04:41:31;;;;;;;3.70;2.80;;;;;;;;;;4994603;28;20194;-74
2021/08/04 04:44:35;;;;;;;5.03;2.70;;;;;;;;;;4994219;28;20225;-75
2021/08/04 04:47:40;;;;;;;2.90;2.57;;;;;;;;;;4993864;28;20182;-74
2021/08/04 04:50:43;;;;;;;4.33;2.63;;;;;;;;;;4994906;28;20535;-75
2021/08/04 04:53:48;;;;;;;4.23;2.57;;;;;;;;;;4993962;28;20572;-74
2021/08/04 04:56:51;;;;;;;3.30;2.77;;;;;;;;;;4995083;28;20190;-75
2021/08/04 04:59:55;;;;;;;3.33;3.00;;;;;;;;;;4995192;28;20653;-74
2021/08/04 05:02:59;;;;;;;5.40;3.13;;;;;;;;;;4983257;28;20226;-74
2021/08/04 05:06:03;;;;;;;5.10;2.77;;;;;;;;;;4994818;28;20201;-74
2021/08/04 05:09:08;;;;;;;3.40;2.67;;;;;;;;;;4993833;28;20649;-73
2021/08/04 05:12:12;;;;;;;3.37;2.70;;;;;;;;;;4994489;28;20225;-75
2021/08/04 05:15:16;;;;;;;3.30;2.60;;;;;;;;;;4994899;28;20534;-74
2021/08/04 05:18:20;;;;;;;4.33;2.60;;;;;;;;;;4995126;28;20201;-75
2021/08/04 05:21:24;;;;;;;3.40;2.60;;;;;;;;;;4994839;28;20182;-74
2021/08/04 05:24:28;;;;;;;3.50;2.40;;;;;;;;;;4994497;28;20661;-74
2021/08/04 05:27:32;;;;;;;3.30;2.50;;;;;;;;;;4993812;28;20190;-74
2021/08/04 05:30:36;;;;;;;4.20;2.80;;;;;;;;;;4994965;28;20657;-75
2021/08/04 05:33:40;;;;;;;3.33;2.50;;;;;;;;;;4994490;28;20226;-74
2021/08/04 05:36:45;;;;;;;3.63;2.30;;;;;;;;;;4995182;28;20182;-74
2021/08/04 05:39:49;;;;;;;6.67;2.40;;;;;;;;;;4994969;28;20178;-74
2021/08/04 05:42:53;;;;;;;4.23;2.90;;;;;;;;;;4994009;28;20570;-75
2021/08/04 05:45:57;;;;;;;4.77;2.50;;;;;;;;;;4975480;28;20523;-75
2021/08/04 05:49:01;;;;;;;3.87;2.60;;;;;;;;;;4975603;28;20622;-75
2021/08/04 05:52:06;;;;;;;3.80;2.37;;;;;;;;;;4975013;28;20183;-75
2021/08/04 05:55:10;;;;;;;5.47;2.70;;;;;;;;;;4974089;28;20175;-74
2021/08/04 05:58:16;;;;;;;5.23;3.00;;;;;;;;;;4963533;28;20194;-74
2021/08/04 06:01:20;;;;;;;3.60;2.43;;;;;;;;;;4975042;28;20183;-74
2021/08/04 06:04:25;;;;;;;5.33;2.77;;;;;;;;;;4974031;28;20210;-74
2021/08/04 06:07:29;;;;;;;3.03;2.30;;;;;;;;;;4974787;28;20202;-74
2021/08/04 06:10:34;;;;;;;4.60;2.60;;;;;;;;;;4974739;28;20186;-74
2021/08/04 06:13:38;;;;;;;2.97;2.30;;;;;;;;;;4974053;28;20210;-74
2021/08/04 06:16:42;;;;;;;4.00;2.60;;;;;;;;;;4974672;28;20183;-74
2021/08/04 06:19:46;;;;;;;4.50;2.63;;;;;;;;;;4976455;28;20182;-73
2021/08/04 06:22:50;;;;;;;5.47;2.63;;;;;;;;;;4994498;28;20221;-74
2021/08/04 06:25:54;;;;;;;3.63;2.20;;;;;;;;;;4994275;28;20182;-74
2021/08/04 06:28:58;;;;;;;3.33;2.50;;;;;;;;;;4993860;28;20186;-74
2021/08/04 06:32:03;;;;;;;4.23;2.50;;;;;;;;;;4993996;28;20523;-75
2021/08/04 06:35:09;;;;;;;3.33;2.40;;;;;;;;;;4993951;28;20202;-75
2021/08/04 06:38:13;;;;;;;6.27;2.90;;;;;;;;;;4993999;28;20182;-75
2021/08/04 06:41:17;;;;;;;3.97;2.60;;;;;;;;;;4994083;28;20649;-75
2021/08/04 06:44:21;;;;;;;5.83;2.47;;;;;;;;;;4981885;28;20234;-74
2021/08/04 06:47:25;;;;;;;5.00;2.80;;;;;;;;;;4993756;28;20190;-74
2021/08/04 06:50:30;;;;;;;5.63;2.70;;;;;;;;;;4982606;28;20182;-74
2021/08/04 06:53:34;;;;;;;6.07;2.57;;;;;;;;;;4993277;28;20217;-74
2021/08/04 06:56:38;;;;;;;3.97;2.47;;;;;;;;;;4993598;28;20202;-74
2021/08/04 06:59:42;;;;;;;2.30;2.10;;;;;;;;;;4992962;28;20654;-74
2021/08/04 07:02:49;;;;;;;6.13;2.47;;;;;;;;;;4993649;28;20217;-74
2021/08/04 07:05:53;;;;;;;8.93;2.70;;;;;;;;;;4981713;28;20175;-74
2021/08/04 07:08:58;;;;;;;3.23;2.50;;;;;;;;;;4993226;28;20535;-74
2021/08/04 07:12:03;;;;;;;5.37;2.53;;;;;;;;;;4996127;28;20190;-74
2021/08/04 07:15:08;;;;;;;7.00;2.30;;;;;;;;;;4996384;28;20179;-73
2021/08/04 07:18:12;;;;;;;3.90;2.20;;;;;;;;;;4985248;28;20179;-75
2021/08/04 07:21:16;;;;;;;5.87;2.27;;;;;;;;;;4985541;28;20182;-74
2021/08/04 07:24:20;;;;;;;2.43;2.00;;;;;;;;;;4997205;28;20677;-74
2021/08/04 07:27:24;;;;;;;6.40;3.00;;;;;;;;;;4997051;28;20205;-74
2021/08/04 07:30:29;;;;;;;2.73;2.07;;;;;;;;;;5018758;28;20190;-74
2021/08/04 07:33:33;;;;;;;3.33;2.40;;;;;;;;;;4996883;28;20222;-74
2021/08/04 07:36:36;;;;;;;5.80;3.70;;;;;;;;;;4997171;28;20491;-74
2021/08/04 07:39:41;;;;;;;2.90;2.60;;;;;;;;;;4996997;28;20190;-74
2021/08/04 07:42:49;;;;;;;6.70;3.27;;;;;;;;;;4995779;28;20218;-75
2021/08/04 07:45:53;;;;;;;3.33;2.10;;;;;;;;;;4996927;28;20175;-75
2021/08/04 07:48:58;;;;;;;6.47;1.90;;;;;;;;;;4996582;28;20630;-74
2021/08/04 07:52:02;;;;;;;3.73;2.07;;;;;;;;;;4996622;28;20198;-74
2021/08/04 07:55:07;;;;;;;2.90;2.07;;;;;;;;;;4996360;28;20198;-74
2021/08/04 07:58:11;;;;;;;2.97;1.63;;;;;;;;;;4996647;28;20190;-74
2021/08/04 08:01:16;;;;;;;1.77;1.60;;;;;;;;;;4995676;28;20182;-74
2021/08/04 08:04:20;;;;;;;1.93;1.57;;;;;;;;;;4995958;28;20221;-74
2021/08/04 08:07:25;;;;;;;4.53;1.70;;;;;;;;;;4973721;28;20194;-74
2021/08/04 08:10:29;;;;;;;3.63;1.60;;;;;;;;;;4984133;28;20181;-74
2021/08/04 08:13:33;;;;;;;2.90;1.93;;;;;;;;;;4984017;28;20218;-74
2021/08/04 08:16:37;;;;;;;3.27;1.97;;;;;;;;;;4984600;28;20178;-75
2021/08/04 08:19:41;;;;;;;2.20;1.70;;;;;;;;;;4983987;28;20182;-75
2021/08/04 08:22:46;;;;;;;2.10;1.90;;;;;;;;;;4995195;28;20225;-74
2021/08/04 08:25:51;;;;;;;2.40;1.80;;;;;;;;;;4995781;28;20226;-74
2021/08/04 08:28:55;;;;;;;2.93;1.87;;;;;;;;;;4984072;28;20190;-74
2021/08/04 08:31:59;;;;;;;3.77;2.07;;;;;;;;;;4995905;28;20182;-74
2021/08/04 08:35:05;;;;;;;2.57;1.70;;;;;;;;;;4984289;28;20182;-74
2021/08/04 08:38:09;;;;;;;3.57;2.30;;;;;;;;;;4995945;28;20535;-74
2021/08/04 08:41:16;;;;;;;2.30;2.00;;;;;;;;;;4996398;28;20186;-74
2021/08/04 08:44:22;;;;;;;4.33;3.17;;;;;;;;;;4983509;28;20229;-74
2021/08/04 08:47:26;;;;;;;4.33;2.93;;;;;;;;;;4983721;28;20194;-74
2021/08/04 08:50:31;;;;;;;5.70;1.87;;;;;;;;;;5022781;23;20236;-73
2021/08/04 08:53:38;;;;;;;3.37;1.67;;;;;;;;;;5036533;28;20548;-73
2021/08/04 08:56:43;;;;;;;2.17;1.80;;;;;;;;;;5023214;28;20181;-74
2021/08/04 08:59:48;;;;;;;2.20;1.63;;;;;;;;;;5049440;28;20188;-74
2021/08/04 09:02:52;;;;;;;3.73;1.50;;;;;;;;;;5054936;28;20215;-74
2021/08/04 09:05:57;;;;;;;6.23;1.50;;;;;;;;;;5042261;28;20220;-74
2021/08/04 09:09:28;;;;;;;2.07;1.70;;;;;;;;;;5042307;28;20204;-74
2021/08/04 09:12:46;;;;;;;2.80;1.50;;;;;;;;;;5054576;28;20682;-74
2021/08/04 09:15:50;;;;;;;1.53;1.37;;;;;;;;;;5054403;28;20631;-74
2021/08/04 09:18:54;;;;;;;1.90;1.43;;;;;;;;;;5041982;28;20184;-74
2021/08/04 09:22:12;;;;;;;3.07;1.63;;;;;;;;;;5041710;28;20207;-73
2021/08/04 09:25:16;;;;;;;2.57;1.70;;;;;;;;;;5053793;28;20204;-74
2021/08/04 09:28:20;;;;;;;4.20;2.07;;;;;;;;;;5022009;28;20188;-74
2021/08/04 09:31:40;;;;;;;8.10;3.97;;;;;;;;;;5030172;28;20199;-74
2021/08/04 09:34:44;;;;;;;10.67;5.93;;;;;;;;;;5030452;28;20200;-74
2021/08/04 09:37:49;;;;;;;5.13;2.60;;;;;;;;;;5053870;28;20524;-73
2021/08/04 09:41:16;;;;;;;4.17;3.43;;;;;;;;;;5054365;28;20508;-74
2021/08/04 09:44:21;;;;;;;2.20;1.77;;;;;;;;;;5054073;28;20623;-75
2021/08/04 09:47:26;;;;;;;4.73;1.90;;;;;;;;;;5053932;28;20639;-75
2021/08/04 09:51:02;;;;;;;3.03;1.50;;;;;;;;;;5053528;28;20531;-74
2021/08/04 09:54:12;;;;;;;3.60;1.20;;;;;;;;;;5023481;28;20223;-74
2021/08/04 09:57:16;;;;;;;2.23;1.50;;;;;;;;;;5029907;28;20200;-74
2021/08/04 10:00:21;;;;;;;2.17;1.77;;;;;;;;;;5053242;28;20193;-74
2021/08/04 10:03:25;;;;;;;4.13;1.50;;;;;;;;;;5052886;28;20576;-74
2021/08/04 10:06:31;;;;;;;3.03;1.60;;;;;;;;;;5041418;28;20540;-75
2021/08/04 10:09:36;;;;;;;1.57;1.30;;;;;;;;;;5040914;28;20200;-74
2021/08/04 10:12:40;;;;;;;1.87;1.63;;;;;;;;;;5040373;28;20690;-75
2021/08/04 10:15:47;;;;;;;1.53;1.30;;;;;;;;;;5049162;28;20192;-74
2021/08/04 10:18:52;;;;;;;1.43;1.20;;;;;;;;;;5029998;28;20216;-74
2021/08/04 10:21:57;;;;;;;1.50;1.40;;;;;;;;;;5013576;28;20515;-75
2021/08/04 10:25:02;;;;;;;2.33;1.40;;;;;;;;;;5053172;28;20216;-75
2021/08/04 10:28:07;;;;;;;2.20;1.70;;;;;;;;;;5041812;28;20517;-75
2021/08/04 10:31:14;;;;;;;2.00;1.47;;;;;;;;;;5041408;28;20658;-74
2021/08/04 10:34:22;;;;;;;2.10;1.57;;;;;;;;;;5051890;28;20196;-74
2021/08/04 10:37:27;;;;;;;3.70;1.53;;;;;;;;;;5054533;28;20191;-74
2021/08/04 10:40:31;;;;;;;2.80;1.33;;;;;;;;;;5042165;28;20516;-74
2021/08/04 10:43:44;;;;;;;3.13;1.60;;;;;;;;;;5053321;28;20569;-75
2021/08/04 10:46:48;;;;;;;2.70;1.40;;;;;;;;;;5057172;28;20184;-74
2021/08/04 10:50:10;;;;;;;2.20;1.43;;;;;;;;;;5057209;28;20207;-74
2021/08/04 10:53:13;;;;;;;2.73;1.50;;;;;;;;;;5045524;28;20693;-75
2021/08/04 10:56:17;;;;;;;3.20;1.50;;;;;;;;;;5057140;28;20184;-74
2021/08/04 10:59:23;;;;;;;2.07;1.53;;;;;;;;;;5057023;28;20188;-74
2021/08/04 11:02:29;;;;;;;1.60;1.40;;;;;;;;;;5044954;28;20220;-74
2021/08/04 11:06:10;;;;;;;2.47;1.77;;;;;;;;;;5057010;28;20215;-75
2021/08/04 11:09:14;;;;;;;1.70;1.60;;;;;;;;;;4980208;28;20568;-75
2021/08/04 11:12:27;;;;;;;1.90;1.40;;;;;;;;;;5032235;28;20223;-74
2021/08/04 11:15:33;;;;;;;5.50;1.63;;;;;;;;;;5033267;28;20196;-75
2021/08/04 11:19:09;;;;;;;1.77;1.60;;;;;;;;;;5056626;28;20188;-74
2021/08/04 11:22:16;;;;;;;2.03;1.73;;;;;;;;;;5056962;28;20223;-75
2021/08/04 11:25:41;;;;;;;1.63;1.40;;;;;;;;;;5057303;28;20215;-75
2021/08/04 11:28:46;;;;;;;1.47;1.30;;;;;;;;;;5044580;28;20196;-75
2021/08/04 11:32:19;;;;;;;1.90;1.43;;;;;;;;;;5044764;28;20192;-75
2021/08/04 11:35:23;;;;;;;3.00;1.40;;;;;;;;;;5057123;28;20623;-75
2021/08/04 11:38:43;;;;;;;3.37;1.40;;;;;;;;;;5056752;28;20200;-75
2021/08/04 11:41:49;;;;;;;1.87;1.17;;;;;;;;;;5056536;28;20176;-75
2021/08/04 11:45:01;;;;;;;1.90;1.60;;;;;;;;;;5043804;28;20192;-75
2021/08/04 11:48:05;;;;;;;1.40;1.30;;;;;;;;;;5056168;28;20208;-75
2021/08/04 11:51:09;;;;;;;1.63;1.50;;;;;;;;;;5044045;28;20211;-75
2021/08/04 11:54:25;;;;;;;1.83;1.37;;;;;;;;;;5057021;28;20230;-75
2021/08/04 11:57:46;;;;;;;2.07;1.50;;;;;;;;;;5055608;28;20644;-75
2021/08/04 12:00:50;;;;;;;23.67;2.40;;;;;;;;;;5043600;28;20527;-76
2021/08/04 12:04:13;;;;;;;17.67;2.10;;;;;;;;;;5055465;28;20216;-75
2021/08/04 12:07:20;;;;;;;4.43;1.77;;;;;;;;;;5055956;28;20195;-74
2021/08/04 12:10:25;;;;;;;4.63;2.17;;;;;;;;;;5055302;28;20192;-74
2021/08/04 12:13:29;;;;;;;4.37;1.40;;;;;;;;;;5055129;28;20217;-74
2021/08/04 12:16:41;;;;;;;3.00;1.60;;;;;;;;;;5054878;28;20182;-74
2021/08/04 12:19:46;;;;;;;1.90;1.37;;;;;;;;;;5041669;28;20194;-74
2021/08/04 12:22:59;;;;;;;1.73;1.20;;;;;;;;;;5054253;28;20689;-75
2021/08/04 12:26:03;;;;;;;2.33;1.30;;;;;;;;;;5055203;28;20210;-75
2021/08/04 12:29:18;;;;;;;5.80;1.43;;;;;;;;;;5043090;28;20211;-74
2021/08/04 12:32:28;;;;;;;3.53;1.40;;;;;;;;;;5034895;28;20220;-75
2021/08/04 12:36:04;;;;;;;2.43;1.37;;;;;;;;;;5054879;28;20182;-75
2021/08/04 12:39:09;;;;;;;4.20;1.40;;;;;;;;;;5053056;28;20198;-76
2021/08/04 12:42:13;;;;;;;3.10;1.40;;;;;;;;;;5042930;28;20221;-75
2021/08/04 12:45:18;;;;;;;1.67;1.20;;;;;;;;;;5043209;28;20208;-74
2021/08/04 12:48:46;;;;;;;1.40;1.30;;;;;;;;;;5048313;28;20198;-74
2021/08/04 12:51:55;;;;;;;1.57;1.33;;;;;;;;;;5055137;28;20184;-75
2021/08/04 12:55:13;;;;;;;2.30;1.43;;;;;;;;;;5035688;28;20205;-75
2021/08/04 12:58:17;;;;;;;1.20;1.10;;;;;;;;;;5047869;28;20206;-74
2021/08/04 13:01:33;;;;;;;1.60;1.20;;;;;;;;;;5054742;28;20177;-74
2021/08/04 13:04:41;;;;;;;1.63;1.17;;;;;;;;;;5052687;28;20196;-74
2021/08/04 13:07:45;;;;;;;1.13;1.00;;;;;;;;;;5050201;28;20192;-74
2021/08/04 13:10:49;;;;;;;2.40;1.23;;;;;;;;;;5050956;28;20199;-74
2021/08/04 13:14:01;;;;;;;2.33;1.33;;;;;;;;;;5051061;28;20222;-74
2021/08/04 13:17:20;;;;;;;2.40;1.03;;;;;;;;;;5038108;28;20191;-74
2021/08/04 13:20:24;;;;;;;1.20;0.90;;;;;;;;;;5050444;28;20191;-74
2021/08/04 13:23:33;;;;;;;2.80;1.33;;;;;;;;;;5050346;28;20216;-74
2021/08/04 13:26:37;;;;;;;2.20;1.10;;;;;;;;;;5030623;28;20213;-73
2021/08/04 13:29:41;;;;;;;2.83;1.33;;;;;;;;;;5035642;28;20719;-74
2021/08/04 13:32:46;;;;;;;1.57;1.10;;;;;;;;;;5050307;28;20217;-74
2021/08/04 13:35:53;;;;;;;2.50;1.10;;;;;;;;;;5050139;28;20177;-73
2021/08/04 13:38:57;;;;;;;1.70;1.23;;;;;;;;;;5050120;28;20203;-74
2021/08/04 13:42:02;;;;;;;1.20;1.10;;;;;;;;;;5037706;28;20176;-74
2021/08/04 13:45:07;;;;;;;4.00;1.07;;;;;;;;;;5050006;28;20198;-74
2021/08/04 13:48:11;;;;;;;1.20;1.10;;;;;;;;;;5049657;28;20172;-74
2021/08/04 13:51:15;;;;;;;2.70;1.10;;;;;;;;;;5050522;28;20204;-74
2021/08/04 13:54:20;;;;;;;1.40;1.10;;;;;;;;;;5041244;28;20184;-75
2021/08/04 13:57:24;;;;;;;1.67;1.23;;;;;;;;;;5053824;28;20180;-74
2021/08/04 14:00:34;;;;;;;1.40;1.27;;;;;;;;;;5040881;28;20190;-73
2021/08/04 14:03:38;;;;;;;1.17;1.00;;;;;;;;;;5053036;28;20223;-74
2021/08/04 14:06:42;;;;;;;2.13;1.43;;;;;;;;;;5053216;28;20677;-73
2021/08/04 14:09:48;;;;;;;1.30;1.03;;;;;;;;;;5053353;28;20197;-73
2021/08/04 14:12:53;;;;;;;1.87;1.40;;;;;;;;;;5053216;28;20220;-73
2021/08/04 14:15:57;;;;;;;1.27;1.17;;;;;;;;;;5053306;28;20191;-73
2021/08/04 14:19:00;;;;;;;1.80;1.60;;;;;;;;;;5040682;28;20188;-73
2021/08/04 14:22:04;;;;;;;2.07;1.10;;;;;;;;;;5041206;28;20514;-73
2021/08/04 14:25:10;;;;;;;1.60;1.20;;;;;;;;;;5053515;28;20187;-73
2021/08/04 14:28:14;;;;;;;8.63;1.50;;;;;;;;;;5053498;28;20168;-73
2021/08/04 14:31:19;;;;;;;2.33;1.37;;;;;;;;;;5041195;28;20644;-73
2021/08/04 14:34:22;;;;;;;3.03;1.40;;;;;;;;;;5053414;28;20178;-73
2021/08/04 14:37:26;;;;;;;3.50;1.10;;;;;;;;;;5040999;28;20512;-73
2021/08/04 14:40:31;;;;;;;2.63;1.40;;;;;;;;;;5053608;28;20177;-73
2021/08/04 14:43:35;;;;;;;1.50;1.40;;;;;;;;;;5053531;28;20219;-73
2021/08/04 14:46:39;;;;;;;1.93;1.43;;;;;;;;;;5040639;28;20203;-73
2021/08/04 14:49:44;;;;;;;3.50;1.30;;;;;;;;;;5052844;28;20220;-73
2021/08/04 14:52:48;;;;;;;1.40;1.30;;;;;;;;;;5053166;28;20223;-73
2021/08/04 14:55:55;;;;;;;1.60;1.40;;;;;;;;;;5052963;28;20181;-73
2021/08/04 14:59:00;;;;;;;1.57;1.27;;;;;;;;;;5032735;28;20538;-73
2021/08/04 15:02:05;;;;;;;1.30;1.17;;;;;;;;;;5047679;28;20639;-73
2021/08/04 15:05:09;;;;;;;4.03;1.40;;;;;;;;;;5036851;28;20200;-72
2021/08/04 15:08:13;;;;;;;4.50;1.43;;;;;;;;;;5048959;28;20188;-73
2021/08/04 15:11:17;;;;;;;1.60;1.33;;;;;;;;;;5049213;28;20192;-73
2021/08/04 15:14:21;;;;;;;1.80;1.50;;;;;;;;;;5048573;28;20619;-73
2021/08/04 15:17:26;;;;;;;2.83;1.30;;;;;;;;;;5048626;28;20532;-73
2021/08/04 15:20:31;;;;;;;1.67;1.30;;;;;;;;;;5048868;28;20184;-73
2021/08/04 15:23:35;;;;;;;2.23;1.40;;;;;;;;;;5048368;28;20223;-73
2021/08/04 15:26:39;;;;;;;2.60;1.70;;;;;;;;;;5048322;28;20216;-73
2021/08/04 15:29:43;;;;;;;4.43;1.90;;;;;;;;;;5028807;28;20675;-73
2021/08/04 15:32:47;;;;;;;3.90;1.67;;;;;;;;;;5047709;28;20382;-73
2021/08/04 15:35:52;;;;;;;5.33;1.77;;;;;;;;;;5032233;28;20528;-73
2021/08/04 15:38:56;;;;;;;4.00;1.93;;;;;;;;;;5045663;28;20647;-73
2021/08/04 15:42:00;;;;;;;3.87;1.90;;;;;;;;;;5037733;28;20188;-73
2021/08/04 15:45:06;;;;;;;2.17;1.70;;;;;;;;;;5039854;28;20196;-73
2021/08/04 15:48:10;;;;;;;2.43;1.90;;;;;;;;;;5051563;28;20212;-72
2021/08/04 15:51:14;;;;;;;2.57;2.07;;;;;;;;;;5051695;28;20207;-73
2021/08/04 15:54:18;;;;;;;2.67;1.60;;;;;;;;;;5039557;28;20192;-73
2021/08/04 15:57:22;;;;;;;2.80;1.57;;;;;;;;;;5051727;28;20176;-73
2021/08/04 16:00:34;;;;;;;2.30;1.77;;;;;;;;;;5050599;28;20188;-72
2021/08/04 16:03:46;;;;;;;2.50;1.70;;;;;;;;;;5024271;28;20227;-72
2021/08/04 16:06:52;;;;;;;2.27;1.50;;;;;;;;;;5052069;28;20663;-73
2021/08/04 16:09:56;;;;;;;1.93;1.67;;;;;;;;;;5051882;28;20544;-73
2021/08/04 16:13:00;;;;;;;2.83;1.80;;;;;;;;;;5038063;28;20888;-73
2021/08/04 16:16:07;;;;;;;3.60;1.60;;;;;;;;;;5046829;28;20195;-72
2021/08/04 16:19:12;;;;;;;1.97;1.60;;;;;;;;;;5051342;28;21246;-73
2021/08/04 16:22:17;;;;;;;2.40;1.40;;;;;;;;;;5039405;28;20219;-72
2021/08/04 16:25:21;;;;;;;2.30;1.67;;;;;;;;;;5050680;28;20211;-72
2021/08/04 16:28:25;;;;;;;2.00;1.50;;;;;;;;;;5051021;28;20211;-72
2021/08/04 16:31:29;;;;;;;2.50;1.57;;;;;;;;;;5051295;28;20528;-72
2021/08/04 16:34:37;;;;;;;1.90;1.37;;;;;;;;;;5051207;28;20682;-72
2021/08/04 16:37:42;;;;;;;4.03;1.57;;;;;;;;;;5037820;28;20197;-72
2021/08/04 16:40:47;;;;;;;2.90;1.40;;;;;;;;;;5051261;28;20203;-72
2021/08/04 16:43:51;;;;;;;2.30;1.93;;;;;;;;;;5050325;28;20220;-72
2021/08/04 16:46:55;;;;;;;4.77;1.50;;;;;;;;;;5050987;28;20211;-72
2021/08/04 16:49:59;;;;;;;1.30;1.20;;;;;;;;;;5023010;28;20216;-72
2021/08/04 16:53:03;;;;;;;8.60;5.97;;;;;;;;;;5050838;28;20591;-72
2021/08/04 16:56:08;;;;;;;16.60;10.10;;;;;;;;;;5038104;28;20200;-72
2021/08/04 16:59:15;;;;;;;10.83;6.93;;;;;;;;;;5042473;28;20579;-72
2021/08/04 17:02:19;;;;;;;9.20;5.73;;;;;;;;;;5038102;28;20579;-72
2021/08/04 17:05:24;;;;;;;6.40;4.40;;;;;;;;;;5050074;28;20181;-72
2021/08/04 17:08:28;;;;;;;3.10;2.50;;;;;;;;;;5037941;28;20215;-72
2021/08/04 17:11:33;;;;;;;3.00;2.20;;;;;;;;;;5050358;28;20184;-72
2021/08/04 17:14:37;;;;;;;3.03;2.00;;;;;;;;;;5047095;28;20663;-72
2021/08/04 17:17:41;;;;;;;2.20;1.80;;;;;;;;;;5050449;28;20191;-72
2021/08/04 17:20:45;;;;;;;3.27;1.97;;;;;;;;;;5050172;28;20512;-72
2021/08/04 17:23:50;;;;;;;2.00;1.47;;;;;;;;;;5049943;28;20224;-72
2021/08/04 17:26:54;;;;;;;1.67;1.40;;;;;;;;;;5050114;28;20208;-73
2021/08/04 17:29:59;;;;;;;2.37;1.67;;;;;;;;;;5045540;28;20199;-77
2021/08/04 17:33:03;;;;;;;2.40;1.50;;;;;;;;;;5037854;28;20532;-77
2021/08/04 17:36:07;;;;;;;1.90;1.60;;;;;;;;;;5049937;28;20183;-77
2021/08/04 17:39:12;;;;;;;2.07;1.60;;;;;;;;;;5049830;28;20176;-77
2021/08/04 17:42:16;;;;;;;2.00;1.70;;;;;;;;;;5026376;28;20212;-77
2021/08/04 17:45:20;;;;;;;2.27;1.77;;;;;;;;;;5037789;28;20728;-76
2021/08/04 17:48:24;;;;;;;2.50;1.87;;;;;;;;;;5036525;28;20199;-76
2021/08/04 17:51:28;;;;;;;2.80;1.50;;;;;;;;;;5049959;28;20207;-77
2021/08/04 17:54:32;;;;;;;2.07;1.60;;;;;;;;;;5037403;28;20639;-77
2021/08/04 17:57:36;;;;;;;2.20;1.57;;;;;;;;;;5037356;28;20203;-77
2021/08/04 18:00:41;;;;;;;1.63;1.40;;;;;;;;;;5037471;28;20520;-77
2021/08/04 18:03:45;;;;;;;2.73;1.80;;;;;;;;;;5049784;28;20215;-77
2021/08/04 18:06:49;;;;;;;1.40;1.27;;;;;;;;;;5053045;28;20203;-77
2021/08/04 18:09:54;;;;;;;1.70;1.57;;;;;;;;;;5039509;28;20188;-77
2021/08/04 18:12:58;;;;;;;2.13;1.60;;;;;;;;;;5049976;28;20224;-77
2021/08/04 18:16:03;;;;;;;1.97;1.40;;;;;;;;;;5037676;28;20192;-77
2021/08/04 18:19:07;;;;;;;2.70;1.30;;;;;;;;;;5029802;28;20181;-77
2021/08/04 18:22:11;;;;;;;1.97;1.60;;;;;;;;;;5015703;28;20184;-78
2021/08/04 18:25:15;;;;;;;3.87;1.60;;;;;;;;;;5037629;28;20195;-78
2021/08/04 18:28:19;;;;;;;2.07;1.67;;;;;;;;;;5027210;28;20204;-77
2021/08/04 18:31:24;;;;;;;2.50;1.97;;;;;;;;;;5026387;28;20212;-78
2021/08/04 18:34:28;;;;;;;5.67;2.17;;;;;;;;;;5039661;28;20215;-78
2021/08/04 18:37:32;;;;;;;3.57;2.23;;;;;;;;;;5039520;28;20599;-77